Time;durP1;ratioP1;P1;durP2;ratioP2;P2;SDS_P1;SDS_P2;PMS_P1;PMS_P2;Temp;Humidity;BMP_temperature;BMP_pressure;BME280_temperature;BME280_humidity;BME280_pressure;Samples;Min_cycle;Max_cycle;Signal;HPM_P1;HPM_P2
2021/08/08 00:02:14;;;;;;;3.42;1.77;;;;;;;25.86;35.09;99435.19;5094133;28;20027;-77
2021/08/08 00:04:39;;;;;;;2.47;1.77;;;;;;;25.76;34.87;99438.75;5094043;28;20015;-75
2021/08/08 00:07:04;;;;;;;2.75;1.60;;;;;;;25.87;35.17;99461.94;5093878;28;20020;-76
2021/08/08 00:09:30;;;;;;;3.72;1.80;;;;;;;25.84;35.27;99456.28;5094094;28;20028;-76
2021/08/08 00:11:55;;;;;;;2.20;2.00;;;;;;;25.83;35.38;99457.38;5094122;28;20020;-75
2021/08/08 00:14:22;;;;;;;3.25;1.83;;;;;;;25.53;35.07;99413.19;5094293;28;20020;-74
2021/08/08 00:16:47;;;;;;;2.17;1.60;;;;;;;25.70;35.36;99449.88;5094049;28;20440;-75
2021/08/08 00:19:13;;;;;;;1.88;1.77;;;;;;;25.53;35.18;99417.78;5093779;28;20024;-74
2021/08/08 00:21:38;;;;;;;3.83;1.83;;;;;;;25.74;35.28;99457.16;5093624;28;20028;-75
2021/08/08 00:24:04;;;;;;;1.65;1.55;;;;;;;25.74;35.12;99461.75;5075817;28;20027;-75
2021/08/08 00:26:30;;;;;;;3.28;1.60;;;;;;;25.58;35.42;99436.69;5075526;28;20416;-75
2021/08/08 00:28:56;;;;;;;5.05;1.95;;;;;;;25.62;35.28;99449.34;5094009;28;20024;-76
2021/08/08 00:31:25;;;;;;;1.70;1.60;;;;;;;25.66;35.61;99463.16;5093706;28;20507;-75
2021/08/08 00:33:51;;;;;;;2.78;1.60;;;;;;;25.70;35.34;99466.13;5093616;28;20046;-74
2021/08/08 00:36:17;;;;;;;2.03;1.73;;;;;;;25.73;35.35;99466.38;5092944;28;20013;-74
2021/08/08 00:38:42;;;;;;;2.25;1.98;;;;;;;25.77;35.60;99467.41;5093059;28;20020;-74
2021/08/08 00:41:08;;;;;;;4.95;1.90;;;;;;;25.79;35.38;99465.25;5093800;28;20028;-75
2021/08/08 00:43:33;;;;;;;2.75;1.90;;;;;;;25.80;35.28;99468.75;5093549;28;20033;-74
2021/08/08 00:45:59;;;;;;;2.80;1.92;;;;;;;25.44;35.31;99414.84;5093440;28;20020;-74
2021/08/08 00:48:24;;;;;;;3.00;1.77;;;;;;;25.62;35.39;99433.13;5093444;28;20030;-74
2021/08/08 00:50:49;;;;;;;2.13;1.70;;;;;;;25.79;35.08;99457.13;5093373;28;20023;-73
2021/08/08 00:53:15;;;;;;;4.40;1.92;;;;;;;25.71;35.51;99465.84;5093476;28;20059;-74
2021/08/08 00:55:40;;;;;;;1.70;1.50;;;;;;;25.62;35.42;99465.59;5093291;28;20396;-74
2021/08/08 00:58:06;;;;;;;3.22;1.95;;;;;;;25.55;35.78;99472.38;5093159;28;20091;-74
2021/08/08 01:00:32;;;;;;;3.00;1.73;;;;;;;25.49;35.99;99466.19;5093253;28;20088;-73
2021/08/08 01:03:02;;;;;;;3.55;1.80;;;;;;;25.43;35.80;99464.59;5093065;28;20020;-74
2021/08/08 01:05:34;;;;;;;4.45;2.13;;;;;;;25.38;36.06;99464.63;5093053;28;20485;-74
2021/08/08 01:08:09;;;;;;;2.35;2.15;;;;;;;25.03;36.09;99408.81;5092950;28;20055;-74
2021/08/08 01:10:35;;;;;;;2.83;1.98;;;;;;;25.07;36.09;99427.97;5092826;28;20107;-74
2021/08/08 01:13:03;;;;;;;4.18;1.67;;;;;;;25.32;36.09;99458.44;5093007;28;20109;-75
2021/08/08 01:15:29;;;;;;;3.90;1.95;;;;;;;25.25;35.94;99465.19;5093129;28;20026;-74
2021/08/08 01:17:56;;;;;;;7.55;1.80;;;;;;;25.09;36.29;99433.91;5092694;28;20019;-74
2021/08/08 01:20:21;;;;;;;3.20;1.90;;;;;;;25.27;35.90;99461.16;5092465;28;20024;-74
2021/08/08 01:22:52;;;;;;;2.88;1.83;;;;;;;25.20;36.12;99463.31;5092616;28;20016;-74
2021/08/08 01:25:17;;;;;;;2.92;1.73;;;;;;;25.09;36.45;99467.13;5092613;28;20102;-74
2021/08/08 01:27:43;;;;;;;3.08;1.73;;;;;;;25.02;36.35;99472.03;5092671;28;20103;-73
2021/08/08 01:30:10;;;;;;;2.70;1.98;;;;;;;24.98;36.32;99470.94;5092734;28;20114;-75
2021/08/08 01:32:36;;;;;;;2.80;2.08;;;;;;;24.90;36.74;99468.78;5092576;28;20078;-74
2021/08/08 01:35:03;;;;;;;3.38;1.92;;;;;;;24.89;36.57;99462.56;5092413;28;20488;-75
2021/08/08 01:37:30;;;;;;;2.10;1.70;;;;;;;24.62;36.73;99435.88;5092309;28;20035;-75
2021/08/08 01:40:06;;;;;;;1.85;1.75;;;;;;;24.75;36.88;99461.50;5092519;28;20496;-75
2021/08/08 01:42:32;;;;;;;2.60;1.65;;;;;;;24.70;37.16;99472.31;5092294;28;20023;-73
2021/08/08 01:45:01;;;;;;;1.70;1.58;;;;;;;24.25;37.07;99411.84;5092102;28;20032;-75
2021/08/08 01:47:31;;;;;;;3.65;1.90;;;;;;;24.59;37.29;99468.84;5092166;28;20024;-75
2021/08/08 01:49:58;;;;;;;1.60;1.50;;;;;;;24.58;37.53;99463.69;5091927;28;20477;-73
2021/08/08 01:52:24;;;;;;;2.17;1.80;;;;;;;24.55;37.36;99461.53;5092253;28;20036;-75
2021/08/08 01:54:50;;;;;;;3.03;2.03;;;;;;;24.39;37.49;99437.25;5092273;28;20081;-73
2021/08/08 01:57:16;;;;;;;1.90;1.70;;;;;;;24.21;37.72;99418.06;5092116;28;20024;-75
2021/08/08 01:59:41;;;;;;;6.53;1.83;;;;;;;24.48;37.71;99455.59;5091999;28;20429;-75
2021/08/08 02:02:08;;;;;;;2.15;1.88;;;;;;;24.43;37.78;99444.78;5091934;28;20034;-76
2021/08/08 02:04:35;;;;;;;2.83;1.80;;;;;;;24.40;37.79;99448.84;5092210;28;20081;-74
2021/08/08 02:07:01;;;;;;;4.43;2.33;;;;;;;24.30;37.89;99449.66;5092047;28;20491;-75
2021/08/08 02:09:26;;;;;;;3.10;2.00;;;;;;;24.28;38.15;99451.81;5091983;28;20481;-75
2021/08/08 02:11:52;;;;;;;3.00;1.85;;;;;;;24.27;37.97;99454.78;5091946;28;20020;-74
2021/08/08 02:14:17;;;;;;;3.80;2.28;;;;;;;24.21;38.12;99447.75;5091716;28;20028;-75
2021/08/08 02:16:43;;;;;;;2.20;1.92;;;;;;;24.22;38.05;99450.16;5091607;28;20165;-73
2021/08/08 02:19:08;;;;;;;2.85;1.75;;;;;;;24.23;38.07;99438.28;5091469;28;20038;-75
2021/08/08 02:21:34;;;;;;;4.47;1.80;;;;;;;24.26;38.07;99458.53;5091510;28;20081;-75
2021/08/08 02:23:59;;;;;;;2.65;2.45;;;;;;;24.26;38.18;99459.34;5091634;28;20032;-75
2021/08/08 02:26:24;;;;;;;1.55;1.45;;;;;;;24.14;38.24;99439.09;5091476;28;20031;-75
2021/08/08 02:28:50;;;;;;;3.20;2.03;;;;;;;24.26;38.08;99459.34;5091582;28;20101;-74
2021/08/08 02:31:18;;;;;;;4.65;1.75;;;;;;;24.32;38.40;99460.19;5091547;28;20035;-74
2021/08/08 02:33:47;;;;;;;5.68;1.90;;;;;;;24.32;38.43;99466.38;5091308;28;20032;-75
2021/08/08 02:36:12;;;;;;;2.83;1.67;;;;;;;24.10;38.25;99433.44;5091400;28;20110;-74
2021/08/08 02:38:38;;;;;;;2.70;2.20;;;;;;;24.09;38.27;99440.72;5091492;28;20229;-75
2021/08/08 02:41:04;;;;;;;3.05;2.00;;;;;;;24.24;38.15;99450.72;5091460;28;20032;-75
2021/08/08 02:43:29;;;;;;;3.13;2.25;;;;;;;24.20;38.30;99446.13;5091585;28;20031;-75
2021/08/08 02:45:55;;;;;;;3.63;2.20;;;;;;;24.37;38.53;99471.78;5091273;28;20020;-74
2021/08/08 02:48:20;;;;;;;5.53;2.50;;;;;;;24.36;38.33;99480.16;5091355;28;20382;-76
2021/08/08 02:50:46;;;;;;;5.20;2.40;;;;;;;24.31;38.53;99475.56;5091481;28;20032;-75
2021/08/08 02:53:11;;;;;;;5.85;2.50;;;;;;;24.27;38.62;99476.38;5091534;28;20028;-74
2021/08/08 02:55:37;;;;;;;10.30;2.60;;;;;;;24.20;38.54;99465.00;5091220;28;20020;-76
2021/08/08 02:58:03;;;;;;;5.93;2.17;;;;;;;24.27;38.76;99476.38;5091271;28;20035;-75
2021/08/08 03:00:28;;;;;;;4.07;2.42;;;;;;;24.28;38.73;99495.00;5092593;28;20030;-75
2021/08/08 03:02:54;;;;;;;7.53;3.65;;;;;;;24.28;38.68;99478.81;5095444;28;20024;-75
2021/08/08 03:05:19;;;;;;;6.15;2.70;;;;;;;24.24;38.65;99474.19;5095425;28;20031;-75
2021/08/08 03:07:46;;;;;;;5.60;2.80;;;;;;;24.25;38.70;99476.59;5095449;28;20024;-75
2021/08/08 03:10:12;;;;;;;10.52;3.00;;;;;;;24.26;38.82;99482.81;5076915;28;20081;-74
2021/08/08 03:12:37;;;;;;;4.72;2.30;;;;;;;24.16;38.94;99480.09;5095089;28;20040;-75
2021/08/08 03:15:04;;;;;;;8.07;2.80;;;;;;;23.82;39.00;99420.47;5095443;28;20503;-75
2021/08/08 03:17:29;;;;;;;4.63;2.53;;;;;;;24.15;38.97;99467.69;5095310;28;20034;-75
2021/08/08 03:19:54;;;;;;;5.13;2.40;;;;;;;24.24;38.95;99493.88;5095330;28;20110;-75
2021/08/08 03:22:20;;;;;;;4.80;2.40;;;;;;;24.25;39.08;99506.28;5095140;28;20063;-74
2021/08/08 03:24:45;;;;;;;3.45;2.35;;;;;;;24.29;38.94;99498.50;5095060;28;20091;-72
2021/08/08 03:27:11;;;;;;;5.45;2.38;;;;;;;24.30;39.19;99505.50;5095054;28;20032;-76
2021/08/08 03:29:36;;;;;;;7.40;2.60;;;;;;;24.27;39.20;99508.75;5094939;28;20040;-73
2021/08/08 03:32:02;;;;;;;6.38;2.60;;;;;;;24.22;39.02;99496.03;5094858;28;20505;-73
2021/08/08 03:34:27;;;;;;;8.07;2.53;;;;;;;24.28;38.88;99521.16;5094901;28;20028;-76
2021/08/08 03:36:53;;;;;;;11.05;3.17;;;;;;;24.24;39.30;99525.44;5094942;28;20098;-75
2021/08/08 03:39:23;;;;;;;8.60;3.22;;;;;;;23.81;39.48;99465.50;5076748;28;20024;-73
2021/08/08 03:41:48;;;;;;;5.03;2.63;;;;;;;24.15;39.38;99537.84;5094635;28;20027;-75
2021/08/08 03:44:13;;;;;;;8.50;2.45;;;;;;;24.02;39.52;99517.59;5094837;28;20026;-75
2021/08/08 03:46:39;;;;;;;6.63;2.78;;;;;;;24.13;39.52;99540.81;5094497;28;20031;-75
2021/08/08 03:49:04;;;;;;;4.40;2.50;;;;;;;23.79;39.39;99475.75;5094740;28;20056;-75
2021/08/08 03:51:30;;;;;;;5.13;2.53;;;;;;;24.19;39.43;99545.13;5094647;28;20027;-75
2021/08/08 03:53:55;;;;;;;5.28;2.85;;;;;;;24.18;39.40;99546.22;5094556;28;20024;-75
2021/08/08 03:56:20;;;;;;;4.95;2.30;;;;;;;24.14;39.16;99539.72;5094244;28;20090;-75
2021/08/08 03:58:46;;;;;;;6.25;2.30;;;;;;;24.07;39.15;99539.97;5076163;28;20051;-75
2021/08/08 04:01:11;;;;;;;4.53;2.80;;;;;;;24.17;39.18;99551.88;5094387;28;20016;-75
2021/08/08 04:03:37;;;;;;;4.70;2.65;;;;;;;24.17;39.22;99546.47;5094120;28;20488;-74
2021/08/08 04:06:02;;;;;;;4.53;2.63;;;;;;;24.04;39.41;99520.81;5093938;28;20032;-75
2021/08/08 04:08:27;;;;;;;4.50;2.47;;;;;;;24.22;39.26;99551.88;5094188;28;20032;-75
2021/08/08 04:10:53;;;;;;;4.20;2.58;;;;;;;24.23;39.37;99551.63;5093870;28;20063;-75
2021/08/08 04:13:19;;;;;;;5.38;3.08;;;;;;;24.28;39.23;99554.34;5094286;28;20078;-75
2021/08/08 04:15:44;;;;;;;7.60;3.10;;;;;;;24.36;39.22;99558.41;5094105;28;20055;-75
2021/08/08 04:18:12;;;;;;;5.32;3.83;;;;;;;24.36;39.29;99559.22;5075840;28;20027;-75
2021/08/08 04:20:38;;;;;;;7.55;3.58;;;;;;;24.38;39.31;99559.75;5075890;28;20400;-75
2021/08/08 04:23:03;;;;;;;5.63;3.33;;;;;;;24.37;39.18;99562.72;5093828;28;20024;-75
2021/08/08 04:25:29;;;;;;;4.72;3.03;;;;;;;24.35;39.37;99556.78;5093817;28;20028;-75
2021/08/08 04:27:54;;;;;;;4.57;3.38;;;;;;;24.43;39.27;99567.06;5093834;28;20473;-75
2021/08/08 04:30:20;;;;;;;4.88;2.75;;;;;;;24.05;39.12;99517.06;5093762;28;20062;-74
2021/08/08 04:32:45;;;;;;;5.40;3.33;;;;;;;24.47;39.10;99572.72;5094026;28;20028;-75
2021/08/08 04:35:10;;;;;;;4.47;2.85;;;;;;;24.39;38.98;99564.06;5093676;28;20032;-75
2021/08/08 04:37:36;;;;;;;6.07;3.42;;;;;;;24.44;39.14;99581.34;5093696;28;20408;-75
2021/08/08 04:40:01;;;;;;;5.88;3.80;;;;;;;24.38;39.20;99580.53;5075286;28;20085;-75
2021/08/08 04:42:27;;;;;;;6.05;3.65;;;;;;;24.36;39.24;99580.81;5093559;28;20035;-74
2021/08/08 04:44:52;;;;;;;7.70;4.03;;;;;;;24.19;39.72;99579.41;5093534;28;20462;-75
2021/08/08 04:47:18;;;;;;;6.63;3.95;;;;;;;23.53;40.01;99504.44;5075269;28;20055;-75
2021/08/08 04:49:43;;;;;;;7.30;4.57;;;;;;;23.99;40.32;99594.44;5093368;28;20107;-76
2021/08/08 04:52:08;;;;;;;8.32;5.25;;;;;;;24.03;40.17;99597.44;5093443;28;20424;-75
2021/08/08 04:54:34;;;;;;;8.70;4.75;;;;;;;24.06;40.41;99584.22;5093864;28;20102;-75
2021/08/08 04:56:59;;;;;;;9.07;6.80;;;;;;;24.17;40.12;99595.03;5093413;28;20024;-74
2021/08/08 04:59:24;;;;;;;10.60;7.15;;;;;;;24.03;40.36;99565.06;5093129;28;20089;-74
2021/08/08 05:01:50;;;;;;;9.40;6.93;;;;;;;24.31;40.15;99601.56;5092945;28;20030;-75
2021/08/08 05:04:15;;;;;;;8.45;6.50;;;;;;;24.02;39.87;99549.94;5092897;28;20026;-75
2021/08/08 05:06:41;;;;;;;11.23;6.13;;;;;;;24.44;39.92;99602.94;5093008;28;20028;-75
2021/08/08 05:09:07;;;;;;;9.45;6.72;;;;;;;24.31;39.57;99569.19;5093032;28;20020;-75
2021/08/08 05:11:32;;;;;;;10.57;6.15;;;;;;;24.68;39.58;99614.88;5074806;28;20024;-75
2021/08/08 05:13:59;;;;;;;8.05;5.93;;;;;;;24.47;39.05;99578.13;5093054;28;20039;-75
2021/08/08 05:16:25;;;;;;;8.63;5.43;;;;;;;24.70;38.93;99601.94;5092938;28;20028;-75
2021/08/08 05:18:50;;;;;;;6.35;4.80;;;;;;;24.79;38.95;99613.00;5093097;28;20073;-75
2021/08/08 05:21:16;;;;;;;7.57;4.88;;;;;;;24.80;38.72;99595.72;5092999;28;20496;-75
2021/08/08 05:23:41;;;;;;;5.60;4.60;;;;;;;24.83;38.50;99597.88;5092032;28;20024;-75
2021/08/08 05:26:07;;;;;;;7.25;4.13;;;;;;;24.53;38.56;99561.69;5092634;28;20470;-75
2021/08/08 05:28:32;;;;;;;6.20;4.10;;;;;;;24.93;38.54;99605.97;5092667;28;20078;-75
2021/08/08 05:30:58;;;;;;;5.68;3.33;;;;;;;24.76;38.23;99573.03;5092366;28;20030;-74
2021/08/08 05:33:23;;;;;;;6.10;3.40;;;;;;;24.96;38.07;99583.84;5074224;28;20028;-75
2021/08/08 05:35:51;;;;;;;5.90;3.13;;;;;;;25.12;38.04;99604.38;5092414;28;20031;-75
2021/08/08 05:38:16;;;;;;;5.28;2.90;;;;;;;25.15;37.82;99598.44;5092328;28;20413;-75
2021/08/08 05:40:42;;;;;;;5.63;2.42;;;;;;;25.06;37.65;99564.13;5092491;28;20031;-75
2021/08/08 05:43:07;;;;;;;2.83;2.50;;;;;;;25.14;37.73;99577.09;5092369;28;20451;-74
2021/08/08 05:45:32;;;;;;;3.35;2.33;;;;;;;25.20;37.83;99579.50;5092346;28;20027;-74
2021/08/08 05:47:58;;;;;;;4.70;2.20;;;;;;;25.42;37.86;99597.34;5074241;28;20571;-75
2021/08/08 05:50:23;;;;;;;4.85;2.53;;;;;;;25.47;37.51;99600.84;5092007;28;20047;-75
2021/08/08 05:52:51;;;;;;;3.75;1.95;;;;;;;25.53;37.41;99612.44;5092145;28;20103;-75
2021/08/08 05:55:18;;;;;;;2.65;2.30;;;;;;;25.54;37.58;99609.47;5092109;28;20024;-75
2021/08/08 05:57:43;;;;;;;3.38;2.33;;;;;;;25.56;37.48;99612.69;5092138;28;20488;-76
2021/08/08 06:00:09;;;;;;;3.22;2.30;;;;;;;25.61;37.24;99615.38;5092106;28;20105;-76
2021/08/08 06:02:35;;;;;;;2.50;2.30;;;;;;;25.37;37.18;99567.59;5092131;28;20016;-75
2021/08/08 06:05:00;;;;;;;4.63;2.30;;;;;;;25.37;36.98;99548.69;5091873;28;20185;-75
2021/08/08 06:07:25;;;;;;;3.13;2.15;;;;;;;25.85;36.72;99603.97;5091935;28;20035;-75
2021/08/08 06:09:51;;;;;;;2.35;2.08;;;;;;;25.89;36.44;99592.31;5091892;28;20030;-76
2021/08/08 06:12:16;;;;;;;3.90;1.90;;;;;;;26.01;36.52;99597.44;5091943;28;20028;-75
2021/08/08 06:14:41;;;;;;;2.33;2.03;;;;;;;26.06;35.82;99604.72;5091923;28;20056;-76
2021/08/08 06:17:07;;;;;;;3.25;1.92;;;;;;;25.85;35.56;99566.91;5073591;28;20019;-75
2021/08/08 06:19:32;;;;;;;3.78;2.17;;;;;;;26.17;35.15;99601.69;5091787;28;20106;-75
2021/08/08 06:21:58;;;;;;;4.68;2.30;;;;;;;25.96;35.16;99560.38;5091715;28;20027;-76
2021/08/08 06:24:23;;;;;;;3.13;2.35;;;;;;;26.36;34.86;99601.06;5091841;28;20103;-74
2021/08/08 06:26:49;;;;;;;2.17;2.00;;;;;;;26.21;34.79;99583.78;5091642;28;20412;-74
2021/08/08 06:29:15;;;;;;;4.50;2.28;;;;;;;26.19;34.79;99579.75;5091954;28;20044;-73
2021/08/08 06:31:41;;;;;;;1.83;1.67;;;;;;;26.41;34.65;99604.56;5091911;28;20031;-73
2021/08/08 06:34:06;;;;;;;2.60;1.65;;;;;;;26.48;34.73;99607.75;5091445;28;20059;-72
2021/08/08 06:36:31;;;;;;;2.33;1.95;;;;;;;26.53;34.84;99605.00;5090936;28;20050;-76
2021/08/08 06:38:58;;;;;;;3.22;2.10;;;;;;;26.35;34.60;99565.06;5091561;28;20032;-75
2021/08/08 06:41:24;;;;;;;2.55;1.70;;;;;;;26.55;34.47;99597.41;5091462;28;20047;-73
2021/08/08 06:43:50;;;;;;;2.20;2.00;;;;;;;26.72;34.21;99604.34;5091486;28;20059;-75
2021/08/08 06:46:15;;;;;;;3.47;2.08;;;;;;;26.78;34.26;99595.09;5091295;28;20095;-76
2021/08/08 06:48:41;;;;;;;2.88;2.20;;;;;;;26.87;33.92;99610.47;5091606;28;20110;-75
2021/08/08 06:51:06;;;;;;;2.55;1.63;;;;;;;26.91;34.06;99589.03;5091542;28;20092;-76
2021/08/08 06:53:31;;;;;;;1.90;1.52;;;;;;;26.97;33.60;99582.47;5091255;28;20465;-73
2021/08/08 06:56:00;;;;;;;2.05;1.63;;;;;;;27.20;33.53;99594.47;5091322;28;20147;-75
2021/08/08 06:59:21;;;;;;;3.00;1.75;;;;;;;27.29;33.30;99595.47;5091260;28;20028;-74
2021/08/08 07:01:47;;;;;;;2.85;1.58;;;;;;;27.35;33.48;99607.06;5091121;28;20036;-75
2021/08/08 07:04:13;;;;;;;4.68;1.90;;;;;;;27.48;33.48;99600.97;5091318;28;20059;-73
2021/08/08 07:06:38;;;;;;;2.75;2.13;;;;;;;27.58;33.52;99600.88;5072983;28;20504;-75
2021/08/08 07:09:07;;;;;;;2.60;1.73;;;;;;;27.72;33.34;99601.03;5091049;28;20028;-72
2021/08/08 07:11:34;;;;;;;2.45;1.70;;;;;;;27.81;32.99;99608.25;5091039;28;20016;-76
2021/08/08 07:13:59;;;;;;;2.78;2.00;;;;;;;27.58;32.96;99554.78;5091041;28;20028;-76
2021/08/08 07:16:24;;;;;;;4.53;2.15;;;;;;;27.67;33.16;99550.34;5091162;28;20546;-76
2021/08/08 07:18:50;;;;;;;3.10;1.80;;;;;;;27.91;33.25;99574.75;5091173;28;20038;-75
2021/08/08 07:21:16;;;;;;;3.60;2.38;;;;;;;28.19;32.80;99611.00;5091151;28;20024;-75
2021/08/08 07:23:41;;;;;;;4.22;2.15;;;;;;;28.17;32.44;99596.91;5091056;28;20030;-75
2021/08/08 07:26:07;;;;;;;3.08;1.58;;;;;;;28.14;32.31;99570.34;5090803;28;20036;-74
2021/08/08 07:28:32;;;;;;;2.03;1.92;;;;;;;28.34;32.18;99597.28;5091029;28;20028;-74
2021/08/08 07:30:57;;;;;;;3.35;1.80;;;;;;;28.44;31.86;99599.03;5090945;28;20059;-74
2021/08/08 07:33:23;;;;;;;2.25;2.00;;;;;;;28.40;31.97;99587.16;5091164;28;20091;-74
2021/08/08 07:35:49;;;;;;;2.88;2.00;;;;;;;28.59;31.80;99606.16;5090784;28;20480;-76
2021/08/08 07:38:14;;;;;;;2.92;2.00;;;;;;;28.65;31.82;99599.53;5090850;28;20028;-74
2021/08/08 07:40:40;;;;;;;3.95;1.83;;;;;;;28.78;31.72;99610.44;5090701;28;20024;-75
2021/08/08 07:43:05;;;;;;;3.13;2.42;;;;;;;28.87;31.78;99601.66;5090675;28;20024;-73
2021/08/08 07:45:31;;;;;;;2.60;1.73;;;;;;;28.92;31.31;99596.94;5072243;28;20477;-75
2021/08/08 07:47:56;;;;;;;3.70;1.38;;;;;;;28.95;30.84;99590.09;5093959;28;20440;-74
2021/08/08 07:50:22;;;;;;;2.47;1.52;;;;;;;29.09;29.92;99610.81;5094452;28;21347;-75
2021/08/08 07:52:47;;;;;;;3.30;1.40;;;;;;;29.16;29.55;99612.31;5094292;28;20062;-74
2021/08/08 07:55:13;;;;;;;2.25;1.70;;;;;;;29.24;29.45;99611.63;5094483;28;20466;-74
2021/08/08 07:57:38;;;;;;;2.03;1.48;;;;;;;29.23;29.42;99607.31;5094336;28;20020;-75
2021/08/08 08:00:05;;;;;;;1.80;1.35;;;;;;;29.33;29.37;99609.84;5094221;28;20016;-75
2021/08/08 08:02:31;;;;;;;2.22;1.30;;;;;;;29.42;29.30;99610.75;5094356;28;20024;-75
2021/08/08 08:04:57;;;;;;;2.83;1.40;;;;;;;29.53;28.73;99605.94;5094402;28;20024;-76
2021/08/08 08:07:22;;;;;;;3.05;1.45;;;;;;;29.32;28.31;99551.09;5094324;28;20082;-74
2021/08/08 08:09:47;;;;;;;2.40;1.52;;;;;;;29.63;28.48;99592.94;5094194;28;20416;-75
2021/08/08 08:12:13;;;;;;;4.68;1.50;;;;;;;29.74;27.93;99599.03;5094260;28;20012;-75
2021/08/08 08:14:38;;;;;;;3.88;1.45;;;;;;;29.84;27.66;99595.28;5094122;28;20454;-72
2021/08/08 08:17:04;;;;;;;2.00;1.50;;;;;;;29.77;28.51;99571.19;5094074;28;20542;-74
2021/08/08 08:19:30;;;;;;;2.03;1.50;;;;;;;29.85;28.26;99556.88;5093986;28;20104;-74
2021/08/08 08:21:55;;;;;;;2.60;1.60;;;;;;;30.22;27.82;99593.94;5093784;28;20020;-74
2021/08/08 08:24:20;;;;;;;2.05;1.52;;;;;;;30.30;27.08;99589.69;5075724;28;20024;-74
2021/08/08 08:26:46;;;;;;;4.35;1.60;;;;;;;30.11;26.82;99546.25;5093720;28;20047;-74
2021/08/08 08:29:11;;;;;;;2.75;1.65;;;;;;;30.56;26.75;99590.72;5093817;28;20104;-75
2021/08/08 08:31:37;;;;;;;1.85;1.40;;;;;;;30.28;26.09;99545.59;5093801;28;20495;-75
2021/08/08 08:34:02;;;;;;;3.05;1.80;;;;;;;30.33;26.14;99550.94;5093758;28;20095;-74
2021/08/08 08:36:28;;;;;;;2.08;1.38;;;;;;;30.76;26.28;99597.63;5093875;28;20096;-75
2021/08/08 08:38:54;;;;;;;1.88;1.40;;;;;;;30.89;25.83;99591.31;5093641;28;20020;-75
2021/08/08 08:41:30;;;;;;;1.50;1.40;;;;;;;31.02;25.29;99594.25;5093495;28;20020;-74
2021/08/08 08:43:56;;;;;;;1.60;1.50;;;;;;;31.10;25.52;99588.84;5093373;28;20038;-75
2021/08/08 08:46:23;;;;;;;2.03;1.60;;;;;;;30.99;25.43;99552.06;5093257;28;20020;-74
2021/08/08 08:48:53;;;;;;;1.55;1.40;;;;;;;31.21;25.33;99573.88;5093383;28;20030;-74
2021/08/08 08:51:24;;;;;;;2.55;1.58;;;;;;;31.46;25.76;99588.75;5093521;28;20024;-74
2021/08/08 08:53:50;;;;;;;2.00;1.60;;;;;;;31.52;25.24;99582.03;5075304;28;20031;-74
2021/08/08 08:56:16;;;;;;;3.83;1.40;;;;;;;31.67;24.93;99591.72;5093303;28;20016;-74
2021/08/08 08:58:42;;;;;;;1.63;1.27;;;;;;;31.71;25.17;99589.19;5092203;28;20048;-74
2021/08/08 09:01:07;;;;;;;1.70;1.13;;;;;;;31.75;24.58;99585.50;5093153;28;20028;-72
2021/08/08 09:03:32;;;;;;;2.40;1.88;;;;;;;31.72;24.50;99560.78;5074963;28;20024;-73
2021/08/08 09:05:58;;;;;;;2.35;1.52;;;;;;;31.90;24.31;99582.31;5092976;28;20024;-72
2021/08/08 09:08:23;;;;;;;4.07;1.77;;;;;;;31.98;24.21;99579.97;5093031;28;20020;-73
2021/08/08 09:11:00;;;;;;;2.53;1.70;;;;;;;32.05;24.16;99577.56;5092806;28;20027;-75
2021/08/08 09:13:26;;;;;;;1.58;1.40;;;;;;;32.07;23.86;99558.94;5092898;28;20043;-74
2021/08/08 09:15:51;;;;;;;3.58;1.73;;;;;;;32.20;24.07;99571.63;5092714;28;20050;-75
2021/08/08 09:18:18;;;;;;;2.65;1.33;;;;;;;32.37;23.63;99570.84;5092691;28;20024;-73
2021/08/08 09:20:45;;;;;;;2.85;1.80;;;;;;;32.54;23.47;99573.59;5092740;28;20020;-74
2021/08/08 09:23:11;;;;;;;2.63;1.48;;;;;;;32.69;23.07;99567.59;5092740;28;20016;-78
2021/08/08 09:25:46;;;;;;;1.40;1.30;;;;;;;32.77;22.79;99575.06;5092507;28;20463;-79
2021/08/08 09:28:11;;;;;;;2.17;1.70;;;;;;;32.92;22.85;99562.78;5074424;28;20028;-78
2021/08/08 09:30:39;;;;;;;1.70;1.40;;;;;;;33.18;22.48;99559.97;5092905;28;20068;-79
2021/08/08 09:33:07;;;;;;;2.10;1.63;;;;;;;33.29;22.56;99554.94;5092879;28;20069;-79
2021/08/08 09:35:37;;;;;;;5.68;1.90;;;;;;;33.46;22.30;99563.94;5092532;28;20024;-78
2021/08/08 09:38:08;;;;;;;1.67;1.48;;;;;;;33.52;22.08;99556.34;5092507;28;20484;-79
2021/08/08 09:40:36;;;;;;;;;;;;;;;33.53;22.05;99548.94;5092889;28;20073;-79
2021/08/08 09:43:05;;;;;;;3.15;1.45;;;;;;;33.72;22.12;99552.03;5092479;28;19915;-77
2021/08/08 09:45:41;;;;;;;1.63;1.33;;;;;;;33.95;22.04;99549.81;5092336;28;20115;-79
2021/08/08 09:48:09;;;;;;;3.50;1.52;;;;;;;33.88;21.89;99506.53;5092171;28;20039;-78
2021/08/08 09:50:35;;;;;;;2.72;1.55;;;;;;;34.22;21.65;99516.44;5092133;28;20027;-78
2021/08/08 09:53:06;;;;;;;1.70;1.50;;;;;;;34.58;21.03;99537.72;5092300;28;20024;-78
2021/08/08 09:55:35;;;;;;;1.60;1.38;;;;;;;34.72;21.42;99535.47;5091156;28;20036;-78
2021/08/08 09:58:24;;;;;;;2.65;1.60;;;;;;;34.86;21.00;99534.41;5091982;28;20085;-78
2021/08/08 10:00:50;;;;;;;3.10;1.40;;;;;;;34.89;20.86;99533.72;5084212;28;20043;-78
2021/08/08 10:03:17;;;;;;;1.70;1.60;;;;;;;34.83;20.43;99496.69;5092077;28;20505;-78
2021/08/08 10:05:44;;;;;;;3.22;1.80;;;;;;;35.20;20.54;99531.28;5090698;28;20021;-77
2021/08/08 10:08:12;;;;;;;1.52;1.30;;;;;;;35.00;20.11;99491.00;5092017;28;20031;-79
2021/08/08 10:10:40;;;;;;;2.13;1.35;;;;;;;35.43;20.32;99523.41;5091631;28;20035;-79
2021/08/08 10:13:27;;;;;;;1.60;1.50;;;;;;;35.58;20.42;99528.19;5091936;28;20031;-78
2021/08/08 10:15:53;;;;;;;1.30;1.20;;;;;;;35.84;19.86;99529.81;5091797;28;20511;-79
2021/08/08 10:18:23;;;;;;;3.63;1.48;;;;;;;36.01;20.02;99526.00;5091610;28;20020;-78
2021/08/08 10:20:49;;;;;;;2.60;1.30;;;;;;;36.27;19.89;99529.91;5092067;28;20024;-78
2021/08/08 10:23:17;;;;;;;3.88;1.52;;;;;;;36.16;19.77;99492.28;5090463;28;20024;-79
2021/08/08 10:25:48;;;;;;;2.78;1.35;;;;;;;36.48;19.26;99529.78;5090222;28;20028;-79
2021/08/08 10:28:14;;;;;;;2.75;1.42;;;;;;;36.63;19.33;99521.91;5091596;28;20106;-78
2021/08/08 10:30:39;;;;;;;4.40;1.48;;;;;;;36.60;19.14;99495.91;5091770;28;20027;-77
2021/08/08 10:33:06;;;;;;;2.33;1.30;;;;;;;36.80;18.81;99507.84;5091627;28;20024;-77
2021/08/08 10:35:37;;;;;;;1.52;1.42;;;;;;;37.05;18.81;99517.53;5090070;28;20027;-79
2021/08/08 10:38:02;;;;;;;;;;;;;;;37.10;18.00;99511.75;5091754;28;20103;-78
2021/08/08 10:40:31;;;;;;;1.67;1.30;;;;;;;37.16;18.78;99502.09;5090259;28;20006;-78
2021/08/08 10:42:58;;;;;;;1.33;1.23;;;;;;;37.08;18.34;99459.00;5091642;28;20024;-79
2021/08/08 10:45:26;;;;;;;1.80;1.35;;;;;;;37.49;18.57;99501.72;5091539;28;20073;-78
2021/08/08 10:47:56;;;;;;;1.88;1.50;;;;;;;37.71;17.98;99499.47;5091541;28;20081;-78
2021/08/08 10:50:22;;;;;;;2.33;1.45;;;;;;;37.85;17.83;99500.56;5091532;28;20031;-79
2021/08/08 10:52:47;;;;;;;1.75;1.60;;;;;;;37.66;17.89;99450.94;5091283;28;20032;-77
2021/08/08 10:55:27;;;;;;;1.48;1.38;;;;;;;37.98;17.93;99497.72;5090262;28;20027;-79
2021/08/08 10:57:53;;;;;;;2.38;1.40;;;;;;;38.00;17.69;99495.38;5091267;28;20504;-76
2021/08/08 11:00:19;;;;;;;3.05;1.25;;;;;;;38.12;17.67;99490.53;5091165;28;20041;-79
2021/08/08 11:02:44;;;;;;;2.25;1.40;;;;;;;38.33;17.77;99494.91;5089622;28;20031;-78
2021/08/08 11:05:14;;;;;;;2.33;1.13;;;;;;;38.55;17.16;99498.84;5091086;28;20024;-78
2021/08/08 11:07:41;;;;;;;7.25;1.70;;;;;;;38.53;17.36;99477.13;5089838;28;20028;-78
2021/08/08 11:10:09;;;;;;;2.25;1.40;;;;;;;38.31;17.35;99464.13;5091144;28;20036;-78
2021/08/08 11:12:41;;;;;;;3.08;1.30;;;;;;;38.48;17.37;99485.72;5091208;28;20028;-78
2021/08/08 11:15:11;;;;;;;1.90;1.20;;;;;;;38.54;16.85;99475.97;5089861;28;20085;-77
2021/08/08 11:17:40;;;;;;;1.48;1.38;;;;;;;38.83;17.18;99484.81;5091058;28;20020;-78
2021/08/08 11:20:06;;;;;;;3.92;2.97;;;;;;;39.03;16.45;99489.88;5091074;28;20024;-78
2021/08/08 11:22:32;;;;;;;2.75;1.40;;;;;;;39.07;16.25;99484.47;5094024;28;20020;-77
2021/08/08 11:25:09;;;;;;;2.20;1.48;;;;;;;39.13;16.67;99485.72;5095009;28;20427;-74
2021/08/08 11:27:38;;;;;;;1.27;1.17;;;;;;;39.25;16.09;99480.00;5094905;28;20020;-74
2021/08/08 11:30:09;;;;;;;2.20;1.27;;;;;;;39.23;15.93;99476.81;5094920;28;20043;-74
2021/08/08 11:32:35;;;;;;;1.40;1.30;;;;;;;39.03;15.99;99472.53;5094999;28;20098;-75